createdAt,value
2017-04-01T00:00:56.862Z,0
2017-04-01T00:01:57.165Z,0
2017-04-01T00:02:56.835Z,0
2017-04-01T00:03:56.584Z,0
2017-04-01T00:04:56.811Z,0
2017-04-01T00:05:57.107Z,0
2017-04-01T00:06:57.067Z,0
2017-04-01T00:07:57.067Z,0
2017-04-01T00:08:57.055Z,0
2017-04-01T00:09:56.786Z,0
2017-04-01T00:10:56.712Z,0
2017-04-01T00:11:57.005Z,0
2017-04-01T00:12:56.985Z,0
2017-04-01T00:13:56.657Z,0
2017-04-01T00:14:56.635Z,0
2017-04-01T00:15:56.124Z,0
2017-04-01T00:16:56.654Z,0
2017-04-01T00:17:56.927Z,0
2017-04-01T00:18:56.906Z,0
2017-04-01T00:19:56.605Z,0
2017-04-01T00:20:56.255Z,0
2017-04-01T00:21:56.255Z,0
2017-04-01T00:22:56.525Z,0
2017-04-01T00:23:56.546Z,0
2017-04-01T00:24:56.519Z,0
2017-04-01T00:25:56.199Z,0
2017-04-01T00:26:56.485Z,0
2017-04-01T00:27:55.852Z,0
2017-04-01T00:28:56.495Z,0
2017-04-01T00:29:56.414Z,0
2017-04-01T00:30:56.428Z,0
2017-04-01T00:31:56.389Z,0
2017-04-01T00:32:56.075Z,0
2017-04-01T00:33:56.451Z,0
2017-04-01T00:34:56.677Z,0
2017-04-01T00:35:56.425Z,0
2017-04-01T00:36:56.005Z,0
2017-04-01T00:37:56.393Z,0
2017-04-01T00:38:56.675Z,0
2017-04-01T00:39:56.355Z,0
2017-04-01T00:40:55.925Z,0
2017-04-01T00:41:56.355Z,0
2017-04-01T00:42:56.562Z,0
2017-04-01T00:43:56.312Z,0
2017-04-01T00:44:56.585Z,0
2017-04-01T00:45:55.872Z,0
2017-04-01T00:46:56.215Z,0
2017-04-01T00:47:56.466Z,0
2017-04-01T00:48:56.436Z,0
2017-04-01T00:49:56.430Z,0
2017-04-01T00:50:56.405Z,0
2017-04-01T00:51:55.466Z,0
2017-04-01T00:52:56.414Z,0
2017-04-01T00:53:56.667Z,0
2017-04-01T00:54:56.396Z,0
2017-04-01T00:55:56.385Z,0
2017-04-01T00:56:55.700Z,0
2017-04-01T00:57:55.674Z,0
2017-04-01T00:58:56.375Z,0
2017-04-01T00:59:56.316Z,0
2017-04-01T01:00:55.973Z,0
2017-04-01T01:01:55.918Z,0
2017-04-01T01:02:55.724Z,0
2017-04-01T01:03:55.894Z,0
2017-04-01T01:04:55.863Z,0
2017-04-01T01:05:55.864Z,0
2017-04-01T01:06:55.946Z,0
2017-04-01T01:07:55.806Z,0
2017-04-01T01:08:56.125Z,0
2017-04-01T01:09:56.146Z,0
2017-04-01T01:10:55.473Z,0
2017-04-01T01:11:55.760Z,0
2017-04-01T01:12:56.141Z,0
2017-04-01T01:13:56.125Z,0
2017-04-01T01:14:56.025Z,0
2017-04-01T01:15:55.717Z,0
2017-04-01T01:16:56.015Z,0
2017-04-01T01:17:55.682Z,0
2017-04-01T01:18:55.964Z,0
2017-04-01T01:19:55.447Z,0
2017-04-01T01:20:55.664Z,0
2017-04-01T01:21:55.899Z,0
2017-04-01T01:22:55.906Z,0
2017-04-01T01:23:54.988Z,0
2017-04-01T01:24:55.869Z,0
2017-04-01T01:25:55.549Z,0
2017-04-01T01:26:55.837Z,0
2017-04-01T01:27:55.503Z,0
2017-04-01T01:28:55.864Z,0
2017-04-01T01:29:55.467Z,0
2017-04-01T01:30:55.460Z,0
2017-04-01T01:31:55.505Z,0
2017-04-01T01:32:55.736Z,0
2017-04-01T01:33:55.818Z,0
2017-04-01T01:34:55.128Z,0
2017-04-01T01:35:55.733Z,0
2017-04-01T01:36:55.357Z,0
2017-04-01T01:37:55.652Z,0
2017-04-01T01:38:55.625Z,0
2017-04-01T01:39:55.323Z,0
2017-04-01T01:40:55.594Z,0
2017-04-01T01:41:55.266Z,0
2017-04-01T01:42:54.657Z,0
2017-04-01T01:43:54.925Z,0
2017-04-01T01:44:55.217Z,0
2017-04-01T01:45:55.505Z,0
2017-04-01T01:46:55.490Z,0
2017-04-01T01:47:55.492Z,0
2017-04-01T01:48:54.904Z,0
2017-04-01T01:49:55.453Z,0
2017-04-01T01:50:55.134Z,0
2017-04-01T01:51:55.102Z,0
2017-04-01T01:52:55.441Z,0
2017-04-01T01:53:55.453Z,0
2017-04-01T01:54:55.068Z,0
2017-04-01T01:55:54.749Z,0
2017-04-01T01:56:55.366Z,0
2017-04-01T01:57:55.030Z,0
2017-04-01T01:58:55.303Z,0
2017-04-01T01:59:54.664Z,0
2017-04-01T02:00:55.270Z,0
2017-04-01T02:01:54.956Z,0
2017-04-01T02:02:55.244Z,0
2017-04-01T02:03:55.235Z,0
2017-04-01T02:04:55.234Z,0
2017-04-01T02:05:54.569Z,0
2017-04-01T02:06:54.864Z,0
2017-04-01T02:07:55.152Z,0
2017-04-01T02:08:54.872Z,0
2017-04-01T02:09:54.824Z,0
2017-04-01T02:10:54.488Z,0
2017-04-01T02:11:54.768Z,0
2017-04-01T02:12:54.774Z,0
2017-04-01T02:13:54.774Z,0
2017-04-01T02:14:55.047Z,0
2017-04-01T02:15:55.046Z,0
2017-04-01T02:16:54.401Z,0
2017-04-01T02:17:54.696Z,0
2017-04-01T02:18:54.668Z,0
2017-04-01T02:19:54.671Z,0
2017-04-01T02:20:54.655Z,0
2017-04-01T02:21:54.320Z,0
2017-04-01T02:22:54.637Z,0
2017-04-01T02:23:54.584Z,0
2017-04-01T02:24:54.595Z,0
2017-04-01T02:25:54.859Z,0
2017-04-01T02:26:54.585Z,0
2017-04-01T02:27:54.829Z,0
2017-04-01T02:28:54.275Z,0
2017-04-01T02:29:54.321Z,0
2017-04-01T02:30:54.800Z,0
2017-04-01T02:31:54.484Z,0
2017-04-01T02:32:54.177Z,0
2017-04-01T02:33:54.436Z,0
2017-04-01T02:34:54.454Z,0
2017-04-01T02:35:54.695Z,0
2017-04-01T02:36:54.675Z,0
2017-04-01T02:37:54.672Z,0
2017-04-01T02:38:54.644Z,0
2017-04-01T02:39:54.403Z,0
2017-04-01T02:40:54.029Z,0
2017-04-01T02:41:54.355Z,0
2017-04-01T02:42:54.319Z,0
2017-04-01T02:43:53.965Z,0
2017-04-01T02:44:53.635Z,0
2017-04-01T02:45:54.289Z,0
2017-04-01T02:46:54.221Z,0
2017-04-01T02:47:54.529Z,0
2017-04-01T02:48:54.174Z,0
2017-04-01T02:49:53.865Z,0
2017-04-01T02:50:54.484Z,0
2017-04-01T02:51:54.200Z,0
2017-04-01T02:52:54.423Z,0
2017-04-01T02:53:53.797Z,0
2017-04-01T02:54:54.392Z,0
2017-04-01T02:55:53.753Z,0
2017-04-01T02:56:54.066Z,0
2017-04-01T02:57:53.414Z,0
2017-04-01T02:58:53.399Z,0
2017-04-01T02:59:54.091Z,0
2017-04-01T03:00:54.062Z,0
2017-04-01T03:01:54.275Z,0
2017-04-01T03:02:54.245Z,0
2017-04-01T03:03:53.645Z,0
2017-04-01T03:04:54.219Z,0
2017-04-01T03:05:53.916Z,0
2017-04-01T03:06:53.924Z,0
2017-04-01T03:07:53.250Z,0
2017-04-01T03:08:53.875Z,0
2017-04-01T03:09:54.139Z,0
2017-04-01T03:10:53.886Z,0
2017-04-01T03:11:53.796Z,0
2017-04-01T03:12:53.835Z,0
2017-04-01T03:13:53.853Z,0
2017-04-01T03:14:54.096Z,0
2017-04-01T03:15:53.842Z,0
2017-04-01T03:16:54.135Z,0
2017-04-01T03:17:53.790Z,0
2017-04-01T03:18:53.076Z,0
2017-04-01T03:19:53.656Z,0
2017-04-01T03:20:53.769Z,0
2017-04-01T03:21:53.636Z,0
2017-04-01T03:22:53.942Z,0
2017-04-01T03:23:53.944Z,0
2017-04-01T03:24:52.975Z,0
2017-04-01T03:25:53.250Z,0
2017-04-01T03:26:53.886Z,0
2017-04-01T03:27:53.846Z,0
2017-04-01T03:28:53.515Z,0
2017-04-01T03:29:53.515Z,0
2017-04-01T03:30:53.537Z,0
2017-04-01T03:31:53.185Z,0
2017-04-01T03:32:53.538Z,0
2017-04-01T03:33:53.507Z,0
2017-04-01T03:34:53.105Z,0
2017-04-01T03:35:53.091Z,0
2017-04-01T03:36:53.075Z,0
2017-04-01T03:37:53.383Z,0
2017-04-01T03:38:53.375Z,0
2017-04-01T03:39:53.413Z,0
2017-04-01T03:40:53.008Z,0
2017-04-01T03:41:53.010Z,0
2017-04-01T03:42:53.604Z,0
2017-04-01T03:43:53.371Z,0
2017-04-01T03:44:53.235Z,0
2017-04-01T03:45:53.556Z,0
2017-04-01T03:46:52.912Z,0
2017-04-01T03:47:52.953Z,0
2017-04-01T03:48:53.191Z,0
2017-04-01T03:49:53.215Z,0
2017-04-01T03:50:53.462Z,0
2017-04-01T03:51:52.884Z,0
2017-04-01T03:52:52.806Z,0
2017-04-01T03:53:53.632Z,0
2017-04-01T03:54:52.874Z,0
2017-04-01T03:55:53.156Z,0
2017-04-01T03:56:52.841Z,0
2017-04-01T03:57:53.036Z,0
2017-04-01T03:58:52.795Z,0
2017-04-01T03:59:53.446Z,0
2017-04-01T04:00:53.002Z,0
2017-04-01T04:01:53.305Z,0
2017-04-01T04:02:53.025Z,0
2017-04-01T04:03:52.716Z,0
2017-04-01T04:04:52.895Z,0
2017-04-01T04:05:52.583Z,0
2017-04-01T04:06:52.886Z,0
2017-04-01T04:07:52.916Z,0
2017-04-01T04:08:52.895Z,0
2017-04-01T04:09:52.857Z,0
2017-04-01T04:10:53.129Z,0
2017-04-01T04:11:52.836Z,0
2017-04-01T04:12:52.779Z,0
2017-04-01T04:13:52.876Z,0
2017-04-01T04:14:52.824Z,0
2017-04-01T04:15:53.084Z,0
2017-04-01T04:16:53.065Z,0
2017-04-01T04:17:52.681Z,0
2017-04-01T04:18:52.665Z,0
2017-04-01T04:19:52.996Z,0
2017-04-01T04:20:52.626Z,0
2017-04-01T04:21:52.126Z,0
2017-04-01T04:22:52.917Z,0
2017-04-01T04:23:52.584Z,0
2017-04-01T04:24:52.273Z,0
2017-04-01T04:25:52.856Z,0
2017-04-01T04:26:52.845Z,0
2017-04-01T04:27:52.805Z,0
2017-04-01T04:28:52.184Z,0
2017-04-01T04:29:52.495Z,0
2017-04-01T04:30:51.855Z,0
2017-04-01T04:31:51.824Z,0
2017-04-01T04:32:52.423Z,0
2017-04-01T04:33:52.106Z,0
2017-04-01T04:34:52.447Z,0
2017-04-01T04:35:52.377Z,0
2017-04-01T04:36:52.656Z,0
2017-04-01T04:37:52.335Z,0
2017-04-01T04:38:52.396Z,0
2017-04-01T04:39:52.006Z,0
2017-04-01T04:40:52.334Z,0
2017-04-01T04:41:52.586Z,0
2017-04-01T04:42:52.569Z,0
2017-04-01T04:43:52.298Z,0
2017-04-01T04:44:51.925Z,0
2017-04-01T04:45:51.906Z,0
2017-04-01T04:46:52.587Z,0
2017-04-01T04:47:51.926Z,0
2017-04-01T04:48:52.453Z,0
2017-04-01T04:49:51.836Z,0
2017-04-01T04:50:52.425Z,0
2017-04-01T04:51:51.496Z,0
2017-04-01T04:52:52.137Z,0
2017-04-01T04:53:52.396Z,0
2017-04-01T04:54:51.819Z,0
2017-04-01T04:55:52.314Z,0
2017-04-01T04:56:51.704Z,0
2017-04-01T04:57:52.283Z,0
2017-04-01T04:58:51.795Z,0
2017-04-01T04:59:51.658Z,0
2017-04-01T05:00:51.638Z,0
2017-04-01T05:01:51.927Z,0
2017-04-01T05:02:51.891Z,0
2017-04-01T05:03:51.865Z,0
2017-04-01T05:04:52.180Z,0
2017-04-01T05:05:51.262Z,0
2017-04-01T05:06:52.145Z,0
2017-04-01T05:07:52.168Z,0
2017-04-01T05:08:52.115Z,0
2017-04-01T05:09:52.102Z,0
2017-04-01T05:10:51.773Z,0
2017-04-01T05:11:52.086Z,5
2017-04-01T05:12:52.042Z,5
2017-04-01T05:13:51.723Z,5
2017-04-01T05:14:52.045Z,5
2017-04-01T05:15:52.053Z,5
2017-04-01T05:16:51.696Z,5
2017-04-01T05:17:50.730Z,5
2017-04-01T05:18:51.645Z,5
2017-04-01T05:19:51.605Z,5
2017-04-01T05:20:51.594Z,10
2017-04-01T05:21:51.586Z,10
2017-04-01T05:22:51.865Z,10
2017-04-01T05:23:51.285Z,10
2017-04-01T05:24:51.523Z,10
2017-04-01T05:25:51.809Z,10
2017-04-01T05:26:51.813Z,15
2017-04-01T05:27:51.507Z,15
2017-04-01T05:28:51.770Z,15
2017-04-01T05:29:51.449Z,15
2017-04-01T05:30:51.726Z,15
2017-04-01T05:31:51.693Z,20
2017-04-01T05:32:51.372Z,20
2017-04-01T05:33:50.751Z,20
2017-04-01T05:34:51.652Z,20
2017-04-01T05:35:51.656Z,20
2017-04-01T05:36:51.625Z,20
2017-04-01T05:37:51.624Z,25
2017-04-01T05:38:51.589Z,25
2017-04-01T05:39:51.264Z,25
2017-04-01T05:40:51.233Z,25
2017-04-01T05:41:51.209Z,25
2017-04-01T05:42:51.498Z,30
2017-04-01T05:43:51.186Z,30
2017-04-01T05:44:50.897Z,30
2017-04-01T05:45:50.857Z,30
2017-04-01T05:46:51.455Z,30
2017-04-01T05:47:51.417Z,35
2017-04-01T05:48:50.754Z,35
2017-04-01T05:49:50.780Z,35
2017-04-01T05:50:51.196Z,35
2017-04-01T05:51:51.044Z,40
2017-04-01T05:52:51.336Z,40
2017-04-01T05:53:51.005Z,40
2017-04-01T05:54:51.014Z,40
2017-04-01T05:55:50.976Z,40
2017-04-01T05:56:51.278Z,40
2017-04-01T05:57:50.759Z,45
2017-04-01T05:58:50.951Z,50
2017-04-01T05:59:50.919Z,50
2017-04-01T06:00:50.577Z,55
2017-04-01T06:01:50.908Z,60
2017-04-01T06:02:51.180Z,60
2017-04-01T06:03:51.153Z,65
2017-04-01T06:04:50.870Z,70
2017-04-01T06:05:51.116Z,70
2017-04-01T06:06:50.791Z,75
2017-04-01T06:07:51.089Z,75
2017-04-01T06:08:51.085Z,75
2017-04-01T06:09:50.746Z,75
2017-04-01T06:10:50.425Z,75
2017-04-01T06:11:50.826Z,75
2017-04-01T06:12:50.697Z,75
2017-04-01T06:13:50.680Z,70
2017-04-01T06:14:50.651Z,70
2017-04-01T06:15:50.643Z,65
2017-04-01T06:16:50.060Z,70
2017-04-01T06:17:50.315Z,70
2017-04-01T06:18:50.888Z,70
2017-04-01T06:19:50.876Z,70
2017-04-01T06:20:50.853Z,75
2017-04-01T06:21:50.542Z,75
2017-04-01T06:22:50.530Z,80
2017-04-01T06:23:50.279Z,80
2017-04-01T06:24:50.466Z,80
2017-04-01T06:25:49.845Z,85
2017-04-01T06:26:50.144Z,85
2017-04-01T06:27:49.887Z,85
2017-04-01T06:28:50.424Z,90
2017-04-01T06:29:50.722Z,90
2017-04-01T06:30:50.394Z,95
2017-04-01T06:31:50.065Z,100
2017-04-01T06:32:50.045Z,105
2017-04-01T06:33:50.618Z,105
2017-04-01T06:34:50.634Z,100
2017-04-01T06:35:50.402Z,100
2017-04-01T06:36:50.282Z,100
2017-04-01T06:37:50.556Z,100
2017-04-01T06:38:50.326Z,95
2017-04-01T06:39:49.620Z,100
2017-04-01T06:40:50.516Z,100
2017-04-01T06:41:49.895Z,105
2017-04-01T06:42:49.585Z,110
2017-04-01T06:43:50.147Z,110
2017-04-01T06:44:50.140Z,110
2017-04-01T06:45:50.126Z,110
2017-04-01T06:46:49.805Z,110
2017-04-01T06:47:49.784Z,110
2017-04-01T06:48:49.783Z,110
2017-04-01T06:49:50.372Z,110
2017-04-01T06:50:50.039Z,110
2017-04-01T06:51:50.116Z,105
2017-04-01T06:52:49.385Z,105
2017-04-01T06:53:50.297Z,110
2017-04-01T06:54:50.272Z,110
2017-04-01T06:55:50.249Z,110
2017-04-01T06:56:49.636Z,115
2017-04-01T06:57:49.911Z,120
2017-04-01T06:58:49.596Z,125
2017-04-01T06:59:49.285Z,130
2017-04-01T07:00:49.255Z,135
2017-04-01T07:01:50.162Z,140
2017-04-01T07:02:49.845Z,140
2017-04-01T07:03:49.810Z,145
2017-04-01T07:04:49.869Z,150
2017-04-01T07:05:49.167Z,160
2017-04-01T07:06:50.077Z,175
2017-04-01T07:07:49.468Z,200
2017-04-01T07:08:49.747Z,225
2017-04-01T07:09:49.094Z,205
2017-04-01T07:10:49.424Z,250
2017-04-01T07:11:49.379Z,350
2017-04-01T07:12:50.062Z,360
2017-04-01T07:13:49.356Z,360
2017-04-01T07:14:49.661Z,285
2017-04-01T07:15:49.304Z,285
2017-04-01T07:16:49.636Z,210
2017-04-01T07:17:49.929Z,195
2017-04-01T07:18:49.403Z,195
2017-04-01T07:19:49.615Z,195
2017-04-01T07:20:49.867Z,195
2017-04-01T07:21:49.248Z,205
2017-04-01T07:22:49.960Z,215
2017-04-01T07:23:49.800Z,225
2017-04-01T07:24:49.504Z,225
2017-04-01T07:25:49.468Z,225
2017-04-01T07:26:49.445Z,225
2017-04-01T07:27:49.117Z,220
2017-04-01T07:28:49.189Z,210
2017-04-01T07:29:49.726Z,220
2017-04-01T07:30:49.106Z,215
2017-04-01T07:31:49.380Z,235
2017-04-01T07:32:49.091Z,235
2017-04-01T07:33:49.346Z,230
2017-04-01T07:34:49.749Z,230
2017-04-01T07:35:49.663Z,230
2017-04-01T07:36:49.060Z,240
2017-04-01T07:37:49.335Z,235
2017-04-01T07:38:49.666Z,230
2017-04-01T07:39:49.341Z,215
2017-04-01T07:40:49.616Z,225
2017-04-01T07:41:49.316Z,215
2017-04-01T07:42:49.336Z,225
2017-04-01T07:43:49.511Z,235
2017-04-01T07:44:48.876Z,250
2017-04-01T07:45:49.510Z,265
2017-04-01T07:46:49.489Z,270
2017-04-01T07:47:49.151Z,270
2017-04-01T07:48:49.165Z,280
2017-04-01T07:49:49.480Z,310
2017-04-01T07:50:49.111Z,355
2017-04-01T07:51:49.119Z,590
2017-04-01T07:52:48.794Z,665
2017-04-01T07:53:49.069Z,665
2017-04-01T07:54:48.783Z,735
2017-04-01T07:55:49.355Z,695
2017-04-01T07:56:49.045Z,715
2017-04-01T07:57:49.353Z,755
2017-04-01T07:58:48.704Z,745
2017-04-01T07:59:49.297Z,760
2017-04-01T08:00:49.298Z,780
2017-04-01T08:01:48.710Z,685
2017-04-01T08:02:49.259Z,780
2017-04-01T08:03:49.297Z,745
2017-04-01T08:04:48.941Z,705
2017-04-01T08:05:49.232Z,840
2017-04-01T08:06:49.257Z,850
2017-04-01T08:07:48.927Z,530
2017-04-01T08:08:48.895Z,785
2017-04-01T08:09:48.904Z,935
2017-04-01T08:10:48.881Z,1000
2017-04-01T08:11:48.880Z,1005
2017-04-01T08:12:49.166Z,1045
2017-04-01T08:13:48.866Z,985
2017-04-01T08:14:48.558Z,905
2017-04-01T08:15:48.236Z,925
2017-04-01T08:16:48.867Z,895
2017-04-01T08:17:49.142Z,865
2017-04-01T08:18:48.506Z,870
2017-04-01T08:19:48.842Z,695
2017-04-01T08:20:48.803Z,285
2017-04-01T08:21:48.487Z,245
2017-04-01T08:22:48.482Z,285
2017-04-01T08:23:49.074Z,430
2017-04-01T08:24:48.528Z,745
2017-04-01T08:25:48.858Z,860
2017-04-01T08:26:49.047Z,930
2017-04-01T08:27:49.046Z,355
2017-04-01T08:28:49.155Z,355
2017-04-01T08:29:48.736Z,340
2017-04-01T08:30:48.378Z,555
2017-04-01T08:31:48.725Z,1015
2017-04-01T08:32:49.026Z,400
2017-04-01T08:33:48.696Z,840
2017-04-01T08:34:48.660Z,410
2017-04-01T08:35:49.056Z,415
2017-04-01T08:36:48.758Z,700
2017-04-01T08:37:48.659Z,475
2017-04-01T08:38:48.657Z,1065
2017-04-01T08:39:48.954Z,395
2017-04-01T08:40:48.632Z,325
2017-04-01T08:41:48.613Z,750
2017-04-01T08:42:49.029Z,840
2017-04-01T08:43:48.981Z,1120
2017-04-01T08:44:48.324Z,1095
2017-04-01T08:45:48.887Z,380
2017-04-01T08:46:48.620Z,885
2017-04-01T08:47:48.867Z,590
2017-04-01T08:48:48.259Z,1005
2017-04-01T08:49:48.856Z,945
2017-04-01T08:50:48.552Z,530
2017-04-01T08:51:48.568Z,1040
2017-04-01T08:52:48.547Z,1085
2017-04-01T08:53:48.301Z,810
2017-04-01T08:54:48.806Z,710
2017-04-01T08:55:48.799Z,620
2017-04-01T08:56:48.469Z,1040
2017-04-01T08:57:48.284Z,335
2017-04-01T08:58:48.596Z,300
2017-04-01T08:59:48.477Z,350
2017-04-01T09:00:48.756Z,285
2017-04-01T09:01:48.192Z,265
2017-04-01T09:02:48.448Z,250
2017-04-01T09:03:48.768Z,250
2017-04-01T09:04:48.107Z,240
2017-04-01T09:05:48.734Z,200
2017-04-01T09:06:48.703Z,180
2017-04-01T09:07:48.275Z,180
2017-04-01T09:08:48.096Z,175
2017-04-01T09:09:48.808Z,165
2017-04-01T09:10:48.686Z,160
2017-04-01T09:11:48.407Z,165
2017-04-01T09:12:48.645Z,160
2017-04-01T09:13:48.802Z,155
2017-04-01T09:14:48.426Z,150
2017-04-01T09:15:48.376Z,145
2017-04-01T09:16:48.625Z,150
2017-04-01T09:17:48.406Z,155
2017-04-01T09:18:48.686Z,175
2017-04-01T09:19:48.291Z,185
2017-04-01T09:20:48.643Z,190
2017-04-01T09:21:47.937Z,190
2017-04-01T09:22:48.259Z,215
2017-04-01T09:23:48.539Z,255
2017-04-01T09:24:48.546Z,275
2017-04-01T09:25:48.612Z,300
2017-04-01T09:26:48.581Z,300
2017-04-01T09:27:47.568Z,280
2017-04-01T09:28:48.467Z,340
2017-04-01T09:29:48.552Z,320
2017-04-01T09:30:47.840Z,330
2017-04-01T09:31:47.807Z,305
2017-04-01T09:32:48.126Z,410
2017-04-01T09:33:48.149Z,350
2017-04-01T09:34:48.447Z,460
2017-04-01T09:35:48.069Z,585
2017-04-01T09:36:48.445Z,615
2017-04-01T09:37:47.739Z,485
2017-04-01T09:38:47.432Z,495
2017-04-01T09:39:48.348Z,390
2017-04-01T09:40:48.327Z,285
2017-04-01T09:41:48.026Z,250
2017-04-01T09:42:48.001Z,235
2017-04-01T09:43:47.722Z,225
2017-04-01T09:44:47.370Z,225
2017-04-01T09:45:47.724Z,225
2017-04-01T09:46:47.646Z,235
2017-04-01T09:47:47.340Z,270
2017-04-01T09:48:47.949Z,265
2017-04-01T09:49:47.303Z,370
2017-04-01T09:50:47.949Z,325
2017-04-01T09:51:47.888Z,300
2017-04-01T09:52:47.868Z,210
2017-04-01T09:53:48.177Z,185
2017-04-01T09:54:47.891Z,170
2017-04-01T09:55:47.939Z,220
2017-04-01T09:56:47.855Z,245
2017-04-01T09:57:48.142Z,355
2017-04-01T09:58:48.127Z,765
2017-04-01T09:59:47.822Z,885
2017-04-01T10:00:48.136Z,880
2017-04-01T10:01:47.487Z,760
2017-04-01T10:02:47.783Z,440
2017-04-01T10:03:47.467Z,335
2017-04-01T10:04:48.066Z,410
2017-04-01T10:05:47.757Z,185
2017-04-01T10:06:48.021Z,170
2017-04-01T10:07:47.487Z,175
2017-04-01T10:08:47.726Z,185
2017-04-01T10:09:47.694Z,225
2017-04-01T10:10:48.017Z,505
2017-04-01T10:11:47.979Z,695
2017-04-01T10:12:47.982Z,745
2017-04-01T10:13:47.968Z,820
2017-04-01T10:14:47.747Z,865
2017-04-01T10:15:48.033Z,820
2017-04-01T10:16:47.664Z,690
2017-04-01T10:17:48.112Z,700
2017-04-01T10:18:47.624Z,855
2017-04-01T10:19:47.937Z,690
2017-04-01T10:20:47.618Z,740
2017-04-01T10:21:47.077Z,735
2017-04-01T10:22:46.958Z,735
2017-04-01T10:23:47.380Z,570
2017-04-01T10:24:47.887Z,530
2017-04-01T10:25:47.259Z,425
2017-04-01T10:26:47.253Z,370
2017-04-01T10:27:47.230Z,405
2017-04-01T10:28:47.525Z,370
2017-04-01T10:29:47.978Z,400
2017-04-01T10:30:47.792Z,405
2017-04-01T10:31:47.507Z,405
2017-04-01T10:32:47.808Z,430
2017-04-01T10:33:47.189Z,415
2017-04-01T10:34:47.161Z,415
2017-04-01T10:35:47.447Z,445
2017-04-01T10:36:47.752Z,445
2017-04-01T10:37:47.737Z,420
2017-04-01T10:38:47.425Z,435
2017-04-01T10:39:47.417Z,430
2017-04-01T10:40:47.418Z,400
2017-04-01T10:41:47.716Z,370
2017-04-01T10:42:47.397Z,345
2017-04-01T10:43:47.375Z,295
2017-04-01T10:44:47.366Z,300
2017-04-01T10:45:46.739Z,295
2017-04-01T10:46:46.750Z,250
2017-04-01T10:47:47.027Z,250
2017-04-01T10:48:47.315Z,260
2017-04-01T10:49:47.628Z,250
2017-04-01T10:50:47.315Z,240
2017-04-01T10:51:47.578Z,240
2017-04-01T10:52:47.586Z,255
2017-04-01T10:53:47.262Z,255
2017-04-01T10:54:47.238Z,255
2017-04-01T10:55:47.546Z,265
2017-04-01T10:56:46.936Z,285
2017-04-01T10:57:46.974Z,300
2017-04-01T10:58:47.219Z,315
2017-04-01T10:59:46.926Z,330
2017-04-01T11:00:47.207Z,285
2017-04-01T11:01:46.570Z,255
2017-04-01T11:02:46.944Z,220
2017-04-01T11:03:47.287Z,205
2017-04-01T11:04:47.239Z,200
2017-04-01T11:05:46.978Z,220
2017-04-01T11:06:47.258Z,270
2017-04-01T11:07:47.272Z,300
2017-04-01T11:08:47.481Z,245
2017-04-01T11:09:47.098Z,210
2017-04-01T11:10:47.491Z,185
2017-04-01T11:11:46.786Z,175
2017-04-01T11:12:47.195Z,180
2017-04-01T11:13:47.137Z,190
2017-04-01T11:14:47.087Z,225
2017-04-01T11:15:47.410Z,235
2017-04-01T11:16:47.335Z,215
2017-04-01T11:17:46.738Z,200
2017-04-01T11:18:47.025Z,175
2017-04-01T11:19:47.376Z,155
2017-04-01T11:20:47.049Z,150
2017-04-01T11:21:47.347Z,150
2017-04-01T11:22:47.317Z,165
2017-04-01T11:23:47.304Z,185
2017-04-01T11:24:47.277Z,200
2017-04-01T11:25:47.246Z,220
2017-04-01T11:26:46.910Z,225
2017-04-01T11:27:47.208Z,230
2017-04-01T11:28:46.597Z,215
2017-04-01T11:29:47.207Z,205
2017-04-01T11:30:46.579Z,195
2017-04-01T11:31:47.177Z,190
2017-04-01T11:32:46.856Z,190
2017-04-01T11:33:47.152Z,190
2017-04-01T11:34:47.145Z,190
2017-04-01T11:35:47.136Z,200
2017-04-01T11:36:46.816Z,210
2017-04-01T11:37:46.822Z,225
2017-04-01T11:38:47.145Z,245
2017-04-01T11:39:47.095Z,260
2017-04-01T11:40:47.063Z,270
2017-04-01T11:41:47.065Z,295
2017-04-01T11:42:47.085Z,310
2017-04-01T11:43:47.037Z,345
2017-04-01T11:44:47.047Z,365
2017-04-01T11:45:47.023Z,385
2017-04-01T11:46:47.014Z,400
2017-04-01T11:47:46.813Z,360
2017-04-01T11:48:46.479Z,365
2017-04-01T11:49:46.991Z,360
2017-04-01T11:50:46.958Z,410
2017-04-01T11:51:46.956Z,390
2017-04-01T11:52:46.352Z,345
2017-04-01T11:53:46.665Z,340
2017-04-01T11:54:46.712Z,350
2017-04-01T11:55:46.669Z,300
2017-04-01T11:56:46.624Z,270
2017-04-01T11:57:46.681Z,250
2017-04-01T11:58:46.593Z,235
2017-04-01T11:59:46.868Z,225
2017-04-01T12:00:46.628Z,215
2017-04-01T12:01:46.958Z,205
2017-04-01T12:02:46.982Z,190
2017-04-01T12:03:46.254Z,170
2017-04-01T12:04:46.905Z,160
2017-04-01T12:05:46.515Z,180
2017-04-01T12:06:46.865Z,200
2017-04-01T12:07:46.864Z,175
2017-04-01T12:08:46.500Z,175
2017-04-01T12:09:46.453Z,170
2017-04-01T12:10:46.167Z,175
2017-04-01T12:11:46.795Z,165
2017-04-01T12:12:46.736Z,160
2017-04-01T12:13:46.804Z,165
2017-04-01T12:14:46.836Z,155
2017-04-01T12:15:46.109Z,155
2017-04-01T12:16:46.411Z,155
2017-04-01T12:17:46.681Z,150
2017-04-01T12:18:46.675Z,150
2017-04-01T12:19:46.727Z,155
2017-04-01T12:20:46.645Z,155
2017-04-01T12:21:46.324Z,150
2017-04-01T12:22:46.323Z,150
2017-04-01T12:23:45.697Z,145
2017-04-01T12:24:45.970Z,150
2017-04-01T12:25:46.295Z,150
2017-04-01T12:26:46.275Z,150
2017-04-01T12:27:46.263Z,145
2017-04-01T12:28:46.644Z,130
2017-04-01T12:29:46.297Z,135
2017-04-01T12:30:46.546Z,130
2017-04-01T12:31:46.542Z,125
2017-04-01T12:32:46.515Z,120
2017-04-01T12:33:46.505Z,120
2017-04-01T12:34:46.342Z,120
2017-04-01T12:35:46.558Z,120
2017-04-01T12:36:46.495Z,125
2017-04-01T12:37:46.507Z,130
2017-04-01T12:38:45.870Z,140
2017-04-01T12:39:46.133Z,145
2017-04-01T12:40:46.117Z,150
2017-04-01T12:41:46.421Z,160
2017-04-01T12:42:46.386Z,170
2017-04-01T12:43:46.072Z,170
2017-04-01T12:44:46.382Z,185
2017-04-01T12:45:46.386Z,190
2017-04-01T12:46:46.044Z,195
2017-04-01T12:47:46.345Z,210
2017-04-01T12:48:46.331Z,215
2017-04-01T12:49:45.714Z,230
2017-04-01T12:50:46.057Z,230
2017-04-01T12:51:46.296Z,240
2017-04-01T12:52:45.681Z,245
2017-04-01T12:53:46.295Z,240
2017-04-01T12:54:45.640Z,240
2017-04-01T12:55:46.243Z,250
2017-04-01T12:56:45.921Z,265
2017-04-01T12:57:45.614Z,250
2017-04-01T12:58:46.179Z,300
2017-04-01T12:59:45.572Z,275
2017-04-01T13:00:46.176Z,310
2017-04-01T13:01:46.185Z,305
2017-04-01T13:02:44.918Z,315
2017-04-01T13:03:46.144Z,300
2017-04-01T13:04:45.838Z,230
2017-04-01T13:05:46.159Z,225
2017-04-01T13:06:46.235Z,255
2017-04-01T13:07:45.173Z,300
2017-04-01T13:08:46.235Z,295
2017-04-01T13:09:46.182Z,275
2017-04-01T13:10:46.182Z,255
2017-04-01T13:11:45.760Z,210
2017-04-01T13:12:46.072Z,205
2017-04-01T13:13:45.118Z,210
2017-04-01T13:14:45.726Z,230
2017-04-01T13:15:46.025Z,205
2017-04-01T13:16:45.797Z,210
2017-04-01T13:17:45.356Z,220
2017-04-01T13:18:46.126Z,215
2017-04-01T13:19:45.942Z,220
2017-04-01T13:20:45.728Z,210
2017-04-01T13:21:45.966Z,220
2017-04-01T13:22:45.955Z,215
2017-04-01T13:23:45.602Z,215
2017-04-01T13:24:45.651Z,205
2017-04-01T13:25:45.291Z,195
2017-04-01T13:26:45.685Z,195
2017-04-01T13:27:45.893Z,195
2017-04-01T13:28:45.252Z,205
2017-04-01T13:29:45.557Z,215
2017-04-01T13:30:45.546Z,225
2017-04-01T13:31:45.932Z,245
2017-04-01T13:32:45.191Z,240
2017-04-01T13:33:45.846Z,260
2017-04-01T13:34:45.468Z,250
2017-04-01T13:35:45.817Z,255
2017-04-01T13:36:45.820Z,260
2017-04-01T13:37:45.447Z,275
2017-04-01T13:38:45.752Z,265
2017-04-01T13:39:45.479Z,255
2017-04-01T13:40:45.432Z,250
2017-04-01T13:41:45.400Z,250
2017-04-01T13:42:45.407Z,245
2017-04-01T13:43:44.846Z,240
2017-04-01T13:44:45.371Z,240
2017-04-01T13:45:45.427Z,245
2017-04-01T13:46:45.361Z,240
2017-04-01T13:47:45.347Z,235
2017-04-01T13:48:45.650Z,240
2017-04-01T13:49:45.363Z,235
2017-04-01T13:50:45.003Z,220
2017-04-01T13:51:45.598Z,175
2017-04-01T13:52:45.306Z,175
2017-04-01T13:53:45.579Z,185
2017-04-01T13:54:45.556Z,170
2017-04-01T13:55:45.557Z,175
2017-04-01T13:56:45.574Z,175
2017-04-01T13:57:44.984Z,195
2017-04-01T13:58:45.212Z,230
2017-04-01T13:59:45.534Z,235
2017-04-01T14:00:45.201Z,235
2017-04-01T14:01:44.941Z,215
2017-04-01T14:02:44.590Z,190
2017-04-01T14:03:45.160Z,190
2017-04-01T14:04:45.475Z,210
2017-04-01T14:05:45.274Z,260
2017-04-01T14:06:45.145Z,255
2017-04-01T14:07:44.523Z,270
2017-04-01T14:08:44.905Z,275
2017-04-01T14:09:45.248Z,270
2017-04-01T14:10:45.150Z,270